sensor_id;sensor_type;location;lat;lon;timestamp;P1;durP1;ratioP1;P2;durP2;ratioP2
38805;SDS011;25635;51.146;17.162;2022-09-09T00:07:55;8.73;;;5.22;;
38805;SDS011;25635;51.146;17.162;2022-09-09T00:13:02;8.00;;;5.55;;
38805;SDS011;25635;51.146;17.162;2022-09-09T00:27:46;8.53;;;5.33;;
38805;SDS011;25635;51.146;17.162;2022-09-09T00:30:18;7.75;;;5.78;;
38805;SDS011;25635;51.146;17.162;2022-09-09T00:50:20;7.25;;;4.47;;
38805;SDS011;25635;51.146;17.162;2022-09-09T00:56:13;9.00;;;6.20;;
38805;SDS011;25635;51.146;17.162;2022-09-09T01:01:48;5.85;;;3.75;;
38805;SDS011;25635;51.146;17.162;2022-09-09T01:04:16;6.17;;;3.80;;
38805;SDS011;25635;51.146;17.162;2022-09-09T01:06:45;5.08;;;3.22;;
38805;SDS011;25635;51.146;17.162;2022-09-09T01:09:29;7.05;;;4.05;;
38805;SDS011;25635;51.146;17.162;2022-09-09T01:12:18;7.20;;;4.10;;
38805;SDS011;25635;51.146;17.162;2022-09-09T01:15:11;7.08;;;4.20;;
38805;SDS011;25635;51.146;17.162;2022-09-09T01:23:20;5.40;;;3.55;;
38805;SDS011;25635;51.146;17.162;2022-09-09T01:28:47;6.22;;;3.00;;
38805;SDS011;25635;51.146;17.162;2022-09-09T01:31:17;5.78;;;3.12;;
38805;SDS011;25635;51.146;17.162;2022-09-09T01:33:47;5.75;;;2.98;;
38805;SDS011;25635;51.146;17.162;2022-09-09T01:36:16;5.20;;;3.08;;
38805;SDS011;25635;51.146;17.162;2022-09-09T01:38:51;6.15;;;3.20;;
38805;SDS011;25635;51.146;17.162;2022-09-09T01:41:18;6.05;;;3.60;;
38805;SDS011;25635;51.146;17.162;2022-09-09T01:43:44;6.03;;;3.52;;
38805;SDS011;25635;51.146;17.162;2022-09-09T01:46:11;4.80;;;3.08;;
38805;SDS011;25635;51.146;17.162;2022-09-09T01:48:38;8.90;;;4.15;;
38805;SDS011;25635;51.146;17.162;2022-09-09T01:51:24;5.83;;;3.30;;
38805;SDS011;25635;51.146;17.162;2022-09-09T01:57:28;5.05;;;3.60;;
38805;SDS011;25635;51.146;17.162;2022-09-09T02:00:11;6.47;;;4.50;;
38805;SDS011;25635;51.146;17.162;2022-09-09T02:05:45;6.70;;;4.05;;
38805;SDS011;25635;51.146;17.162;2022-09-09T02:11:16;4.87;;;2.92;;
38805;SDS011;25635;51.146;17.162;2022-09-09T02:13:46;5.25;;;3.27;;
38805;SDS011;25635;51.146;17.162;2022-09-09T02:16:18;6.47;;;3.50;;
38805;SDS011;25635;51.146;17.162;2022-09-09T02:19:06;5.00;;;2.40;;
38805;SDS011;25635;51.146;17.162;2022-09-09T02:21:47;6.60;;;3.20;;
38805;SDS011;25635;51.146;17.162;2022-09-09T02:24:14;6.33;;;3.37;;
38805;SDS011;25635;51.146;17.162;2022-09-09T02:26:42;6.35;;;3.45;;
38805;SDS011;25635;51.146;17.162;2022-09-09T02:29:17;5.62;;;3.35;;
38805;SDS011;25635;51.146;17.162;2022-09-09T02:31:43;6.85;;;3.40;;
38805;SDS011;25635;51.146;17.162;2022-09-09T02:34:12;6.40;;;3.85;;
38805;SDS011;25635;51.146;17.162;2022-09-09T02:36:42;6.37;;;3.55;;
38805;SDS011;25635;51.146;17.162;2022-09-09T02:39:12;7.62;;;3.10;;
38805;SDS011;25635;51.146;17.162;2022-09-09T02:41:40;5.95;;;3.25;;
38805;SDS011;25635;51.146;17.162;2022-09-09T02:44:22;5.28;;;2.95;;
38805;SDS011;25635;51.146;17.162;2022-09-09T02:47:04;6.37;;;3.52;;
38805;SDS011;25635;51.146;17.162;2022-09-09T02:52:32;6.20;;;4.10;;
38805;SDS011;25635;51.146;17.162;2022-09-09T02:55:18;7.15;;;3.77;;
38805;SDS011;25635;51.146;17.162;2022-09-09T02:57:48;5.03;;;3.25;;
38805;SDS011;25635;51.146;17.162;2022-09-09T03:00:22;6.08;;;3.35;;
38805;SDS011;25635;51.146;17.162;2022-09-09T03:02:51;5.50;;;2.75;;
38805;SDS011;25635;51.146;17.162;2022-09-09T03:05:20;5.03;;;2.87;;
38805;SDS011;25635;51.146;17.162;2022-09-09T03:07:47;5.65;;;3.50;;
38805;SDS011;25635;51.146;17.162;2022-09-09T03:10:15;5.22;;;3.37;;
38805;SDS011;25635;51.146;17.162;2022-09-09T03:12:43;7.53;;;3.50;;
38805;SDS011;25635;51.146;17.162;2022-09-09T03:15:09;5.40;;;3.50;;
38805;SDS011;25635;51.146;17.162;2022-09-09T03:17:36;5.37;;;3.35;;
38805;SDS011;25635;51.146;17.162;2022-09-09T03:20:03;6.62;;;3.67;;
38805;SDS011;25635;51.146;17.162;2022-09-09T03:22:31;6.47;;;2.65;;
38805;SDS011;25635;51.146;17.162;2022-09-09T03:24:57;5.10;;;2.60;;
38805;SDS011;25635;51.146;17.162;2022-09-09T03:27:24;6.35;;;3.20;;
38805;SDS011;25635;51.146;17.162;2022-09-09T03:29:50;7.28;;;3.40;;
38805;SDS011;25635;51.146;17.162;2022-09-09T03:32:17;6.47;;;3.45;;
38805;SDS011;25635;51.146;17.162;2022-09-09T03:34:45;5.28;;;3.20;;
38805;SDS011;25635;51.146;17.162;2022-09-09T03:37:12;5.35;;;3.30;;
38805;SDS011;25635;51.146;17.162;2022-09-09T03:39:38;7.00;;;3.25;;
38805;SDS011;25635;51.146;17.162;2022-09-09T03:42:05;5.30;;;3.02;;
38805;SDS011;25635;51.146;17.162;2022-09-09T03:44:31;5.17;;;3.20;;
38805;SDS011;25635;51.146;17.162;2022-09-09T03:46:59;4.85;;;3.47;;
38805;SDS011;25635;51.146;17.162;2022-09-09T03:49:27;5.90;;;3.08;;
38805;SDS011;25635;51.146;17.162;2022-09-09T03:51:55;4.75;;;2.42;;
38805;SDS011;25635;51.146;17.162;2022-09-09T03:54:23;5.70;;;2.50;;
38805;SDS011;25635;51.146;17.162;2022-09-09T03:56:50;5.22;;;2.67;;
38805;SDS011;25635;51.146;17.162;2022-09-09T03:59:16;5.65;;;2.67;;
38805;SDS011;25635;51.146;17.162;2022-09-09T04:01:42;4.33;;;2.60;;
38805;SDS011;25635;51.146;17.162;2022-09-09T04:04:11;6.08;;;2.58;;
38805;SDS011;25635;51.146;17.162;2022-09-09T04:06:37;5.67;;;2.67;;
38805;SDS011;25635;51.146;17.162;2022-09-09T04:09:03;5.05;;;2.37;;
38805;SDS011;25635;51.146;17.162;2022-09-09T04:11:30;4.37;;;2.12;;
38805;SDS011;25635;51.146;17.162;2022-09-09T04:13:56;4.05;;;2.30;;
38805;SDS011;25635;51.146;17.162;2022-09-09T04:16:22;3.85;;;1.75;;
38805;SDS011;25635;51.146;17.162;2022-09-09T04:18:48;4.28;;;2.20;;
38805;SDS011;25635;51.146;17.162;2022-09-09T04:21:15;5.30;;;2.25;;
38805;SDS011;25635;51.146;17.162;2022-09-09T04:23:43;3.77;;;2.20;;
38805;SDS011;25635;51.146;17.162;2022-09-09T04:26:09;4.35;;;2.35;;
38805;SDS011;25635;51.146;17.162;2022-09-09T04:28:36;4.42;;;2.40;;
38805;SDS011;25635;51.146;17.162;2022-09-09T04:31:06;5.03;;;2.37;;
38805;SDS011;25635;51.146;17.162;2022-09-09T04:33:37;4.55;;;2.50;;
38805;SDS011;25635;51.146;17.162;2022-09-09T04:36:05;4.35;;;2.15;;
38805;SDS011;25635;51.146;17.162;2022-09-09T04:38:32;6.97;;;2.20;;
38805;SDS011;25635;51.146;17.162;2022-09-09T04:40:58;5.20;;;2.15;;
38805;SDS011;25635;51.146;17.162;2022-09-09T04:43:24;3.87;;;1.92;;
38805;SDS011;25635;51.146;17.162;2022-09-09T04:45:51;4.08;;;2.20;;
38805;SDS011;25635;51.146;17.162;2022-09-09T04:48:19;4.20;;;2.60;;
38805;SDS011;25635;51.146;17.162;2022-09-09T04:50:57;4.25;;;2.40;;
38805;SDS011;25635;51.146;17.162;2022-09-09T04:53:23;7.05;;;2.83;;
38805;SDS011;25635;51.146;17.162;2022-09-09T04:55:51;6.03;;;3.25;;
38805;SDS011;25635;51.146;17.162;2022-09-09T04:58:21;5.37;;;3.47;;
38805;SDS011;25635;51.146;17.162;2022-09-09T05:00:49;5.90;;;3.08;;
38805;SDS011;25635;51.146;17.162;2022-09-09T05:03:17;5.05;;;3.12;;
38805;SDS011;25635;51.146;17.162;2022-09-09T05:05:44;5.37;;;3.67;;
38805;SDS011;25635;51.146;17.162;2022-09-09T05:08:10;6.35;;;4.45;;
38805;SDS011;25635;51.146;17.162;2022-09-09T05:10:37;6.45;;;4.70;;
38805;SDS011;25635;51.146;17.162;2022-09-09T05:13:04;6.00;;;4.37;;
38805;SDS011;25635;51.146;17.162;2022-09-09T05:15:32;7.80;;;4.30;;
38805;SDS011;25635;51.146;17.162;2022-09-09T05:17:58;6.15;;;3.47;;
38805;SDS011;25635;51.146;17.162;2022-09-09T05:20:26;5.20;;;3.30;;
38805;SDS011;25635;51.146;17.162;2022-09-09T05:22:54;6.67;;;3.60;;
38805;SDS011;25635;51.146;17.162;2022-09-09T05:25:22;5.45;;;3.87;;
38805;SDS011;25635;51.146;17.162;2022-09-09T05:27:51;8.30;;;4.12;;
38805;SDS011;25635;51.146;17.162;2022-09-09T05:30:19;5.87;;;3.75;;
38805;SDS011;25635;51.146;17.162;2022-09-09T05:32:47;5.95;;;4.00;;
38805;SDS011;25635;51.146;17.162;2022-09-09T05:35:14;6.20;;;3.80;;
38805;SDS011;25635;51.146;17.162;2022-09-09T05:37:41;6.92;;;3.85;;
38805;SDS011;25635;51.146;17.162;2022-09-09T05:40:07;6.78;;;4.20;;
38805;SDS011;25635;51.146;17.162;2022-09-09T05:42:35;7.37;;;4.22;;
38805;SDS011;25635;51.146;17.162;2022-09-09T05:45:01;7.17;;;4.80;;
38805;SDS011;25635;51.146;17.162;2022-09-09T05:47:27;6.33;;;4.42;;
38805;SDS011;25635;51.146;17.162;2022-09-09T05:49:54;7.58;;;4.30;;
38805;SDS011;25635;51.146;17.162;2022-09-09T05:52:21;7.60;;;4.70;;
38805;SDS011;25635;51.146;17.162;2022-09-09T05:54:48;6.53;;;4.72;;
38805;SDS011;25635;51.146;17.162;2022-09-09T05:57:15;7.05;;;5.08;;
38805;SDS011;25635;51.146;17.162;2022-09-09T05:59:41;8.13;;;4.90;;
38805;SDS011;25635;51.146;17.162;2022-09-09T06:02:08;8.50;;;5.67;;
38805;SDS011;25635;51.146;17.162;2022-09-09T06:04:35;6.60;;;5.22;;
38805;SDS011;25635;51.146;17.162;2022-09-09T06:07:01;8.53;;;5.97;;
38805;SDS011;25635;51.146;17.162;2022-09-09T06:09:27;6.97;;;4.62;;
38805;SDS011;25635;51.146;17.162;2022-09-09T06:11:55;6.78;;;5.83;;
38805;SDS011;25635;51.146;17.162;2022-09-09T06:14:23;7.62;;;5.72;;
38805;SDS011;25635;51.146;17.162;2022-09-09T06:16:50;7.30;;;4.78;;
38805;SDS011;25635;51.146;17.162;2022-09-09T06:19:17;8.68;;;4.72;;
38805;SDS011;25635;51.146;17.162;2022-09-09T06:21:44;8.25;;;5.00;;
38805;SDS011;25635;51.146;17.162;2022-09-09T06:24:10;7.65;;;4.78;;
38805;SDS011;25635;51.146;17.162;2022-09-09T06:26:39;7.47;;;4.22;;
38805;SDS011;25635;51.146;17.162;2022-09-09T06:29:07;9.70;;;4.53;;
38805;SDS011;25635;51.146;17.162;2022-09-09T06:31:35;7.65;;;4.20;;
38805;SDS011;25635;51.146;17.162;2022-09-09T06:34:03;8.43;;;5.37;;
38805;SDS011;25635;51.146;17.162;2022-09-09T06:36:34;6.75;;;4.87;;
38805;SDS011;25635;51.146;17.162;2022-09-09T06:39:02;6.78;;;4.62;;
38805;SDS011;25635;51.146;17.162;2022-09-09T06:41:30;6.78;;;4.62;;
38805;SDS011;25635;51.146;17.162;2022-09-09T06:43:58;7.62;;;4.20;;
38805;SDS011;25635;51.146;17.162;2022-09-09T06:46:27;6.65;;;3.77;;
38805;SDS011;25635;51.146;17.162;2022-09-09T06:48:58;7.80;;;4.35;;
38805;SDS011;25635;51.146;17.162;2022-09-09T06:51:26;15.95;;;4.30;;
38805;SDS011;25635;51.146;17.162;2022-09-09T06:53:56;7.30;;;3.70;;
38805;SDS011;25635;51.146;17.162;2022-09-09T06:59:02;9.28;;;5.00;;
38805;SDS011;25635;51.146;17.162;2022-09-09T07:01:32;7.97;;;5.08;;
38805;SDS011;25635;51.146;17.162;2022-09-09T07:04:01;9.50;;;6.05;;
38805;SDS011;25635;51.146;17.162;2022-09-09T07:06:34;7.47;;;4.80;;
38805;SDS011;25635;51.146;17.162;2022-09-09T07:09:04;4.92;;;3.75;;
38805;SDS011;25635;51.146;17.162;2022-09-09T07:11:36;4.97;;;3.27;;
38805;SDS011;25635;51.146;17.162;2022-09-09T07:14:11;6.50;;;3.58;;
38805;SDS011;25635;51.146;17.162;2022-09-09T07:16:43;6.92;;;4.08;;
38805;SDS011;25635;51.146;17.162;2022-09-09T07:19:11;7.05;;;4.05;;
38805;SDS011;25635;51.146;17.162;2022-09-09T07:21:43;6.72;;;3.83;;
38805;SDS011;25635;51.146;17.162;2022-09-09T07:24:09;7.92;;;3.58;;
38805;SDS011;25635;51.146;17.162;2022-09-09T07:26:37;7.10;;;3.67;;
38805;SDS011;25635;51.146;17.162;2022-09-09T07:29:04;6.53;;;3.08;;
38805;SDS011;25635;51.146;17.162;2022-09-09T07:31:32;6.28;;;2.55;;
38805;SDS011;25635;51.146;17.162;2022-09-09T07:34:02;5.28;;;2.70;;
38805;SDS011;25635;51.146;17.162;2022-09-09T07:36:30;5.58;;;2.20;;
38805;SDS011;25635;51.146;17.162;2022-09-09T07:39:02;6.37;;;2.20;;
38805;SDS011;25635;51.146;17.162;2022-09-09T07:41:37;5.53;;;2.30;;
38805;SDS011;25635;51.146;17.162;2022-09-09T07:44:13;6.25;;;2.40;;
38805;SDS011;25635;51.146;17.162;2022-09-09T07:46:44;4.60;;;2.25;;
38805;SDS011;25635;51.146;17.162;2022-09-09T07:49:11;5.42;;;1.85;;
38805;SDS011;25635;51.146;17.162;2022-09-09T07:51:38;4.03;;;1.85;;
38805;SDS011;25635;51.146;17.162;2022-09-09T07:54:09;6.05;;;1.87;;
38805;SDS011;25635;51.146;17.162;2022-09-09T07:56:39;5.53;;;2.17;;
38805;SDS011;25635;51.146;17.162;2022-09-09T07:59:07;4.65;;;2.05;;
38805;SDS011;25635;51.146;17.162;2022-09-09T08:01:36;6.37;;;1.87;;
38805;SDS011;25635;51.146;17.162;2022-09-09T08:04:12;4.47;;;1.67;;
38805;SDS011;25635;51.146;17.162;2022-09-09T08:06:53;4.95;;;1.95;;
38805;SDS011;25635;51.146;17.162;2022-09-09T08:09:22;4.95;;;1.87;;
38805;SDS011;25635;51.146;17.162;2022-09-09T08:11:51;4.92;;;1.75;;
38805;SDS011;25635;51.146;17.162;2022-09-09T08:14:18;4.30;;;1.75;;
38805;SDS011;25635;51.146;17.162;2022-09-09T08:32:29;4.20;;;1.30;;
38805;SDS011;25635;51.146;17.162;2022-09-09T08:34:55;3.55;;;1.30;;
38805;SDS011;25635;51.146;17.162;2022-09-09T08:37:21;3.58;;;1.20;;
38805;SDS011;25635;51.146;17.162;2022-09-09T08:39:47;3.45;;;1.15;;
38805;SDS011;25635;51.146;17.162;2022-09-09T08:42:20;4.95;;;1.20;;
38805;SDS011;25635;51.146;17.162;2022-09-09T09:04:29;3.67;;;1.12;;
38805;SDS011;25635;51.146;17.162;2022-09-09T09:13:06;3.87;;;0.88;;
38805;SDS011;25635;51.146;17.162;2022-09-09T09:15:48;4.62;;;1.10;;
38805;SDS011;25635;51.146;17.162;2022-09-09T09:18:41;3.25;;;0.93;;
38805;SDS011;25635;51.146;17.162;2022-09-09T09:23:56;2.70;;;0.75;;
38805;SDS011;25635;51.146;17.162;2022-09-09T09:26:25;3.30;;;1.00;;
38805;SDS011;25635;51.146;17.162;2022-09-09T09:28:56;4.33;;;0.80;;
38805;SDS011;25635;51.146;17.162;2022-09-09T09:31:29;3.87;;;1.00;;
38805;SDS011;25635;51.146;17.162;2022-09-09T09:33:54;3.77;;;0.85;;
38805;SDS011;25635;51.146;17.162;2022-09-09T09:36:24;2.75;;;0.75;;
38805;SDS011;25635;51.146;17.162;2022-09-09T09:39:03;3.87;;;0.60;;
38805;SDS011;25635;51.146;17.162;2022-09-09T09:44:02;2.62;;;0.70;;
38805;SDS011;25635;51.146;17.162;2022-09-09T09:54:22;2.50;;;0.65;;
38805;SDS011;25635;51.146;17.162;2022-09-09T09:56:50;3.05;;;0.50;;
38805;SDS011;25635;51.146;17.162;2022-09-09T09:59:20;5.35;;;1.00;;
38805;SDS011;25635;51.146;17.162;2022-09-09T10:01:50;3.02;;;0.70;;
38805;SDS011;25635;51.146;17.162;2022-09-09T10:04:17;4.28;;;0.70;;
38805;SDS011;25635;51.146;17.162;2022-09-09T10:06:49;4.17;;;0.60;;
38805;SDS011;25635;51.146;17.162;2022-09-09T10:12:08;2.42;;;0.70;;
38805;SDS011;25635;51.146;17.162;2022-09-09T10:15:20;2.55;;;0.60;;
38805;SDS011;25635;51.146;17.162;2022-09-09T10:17:54;3.08;;;0.80;;
38805;SDS011;25635;51.146;17.162;2022-09-09T10:20:38;2.67;;;0.75;;
38805;SDS011;25635;51.146;17.162;2022-09-09T10:26:59;2.35;;;0.80;;
38805;SDS011;25635;51.146;17.162;2022-09-09T10:29:36;2.50;;;0.62;;
38805;SDS011;25635;51.146;17.162;2022-09-09T10:40:34;3.45;;;0.60;;
38805;SDS011;25635;51.146;17.162;2022-09-09T10:43:16;4.00;;;0.70;;
38805;SDS011;25635;51.146;17.162;2022-09-09T10:51:55;4.00;;;0.65;;
38805;SDS011;25635;51.146;17.162;2022-09-09T10:55:10;3.22;;;0.90;;
38805;SDS011;25635;51.146;17.162;2022-09-09T10:57:47;2.87;;;0.70;;
38805;SDS011;25635;51.146;17.162;2022-09-09T11:00:19;3.77;;;0.70;;
38805;SDS011;25635;51.146;17.162;2022-09-09T11:02:50;3.22;;;0.90;;
38805;SDS011;25635;51.146;17.162;2022-09-09T11:24:52;3.50;;;0.70;;
38805;SDS011;25635;51.146;17.162;2022-09-09T11:30:43;2.58;;;0.55;;
38805;SDS011;25635;51.146;17.162;2022-09-09T11:44:43;2.80;;;0.45;;
38805;SDS011;25635;51.146;17.162;2022-09-09T11:47:51;2.42;;;0.53;;
38805;SDS011;25635;51.146;17.162;2022-09-09T11:52:47;3.00;;;0.60;;
38805;SDS011;25635;51.146;17.162;2022-09-09T11:57:57;3.83;;;0.60;;
38805;SDS011;25635;51.146;17.162;2022-09-09T12:18:00;1.92;;;0.60;;
38805;SDS011;25635;51.146;17.162;2022-09-09T12:20:33;3.15;;;0.90;;
38805;SDS011;25635;51.146;17.162;2022-09-09T12:26:06;3.05;;;0.78;;
38805;SDS011;25635;51.146;17.162;2022-09-09T12:31:44;2.70;;;0.50;;
38805;SDS011;25635;51.146;17.162;2022-09-09T12:37:10;3.52;;;0.53;;
38805;SDS011;25635;51.146;17.162;2022-09-09T12:39:45;3.37;;;0.57;;
38805;SDS011;25635;51.146;17.162;2022-09-09T12:42:19;3.52;;;0.80;;
38805;SDS011;25635;51.146;17.162;2022-09-09T12:44:52;3.70;;;0.60;;
38805;SDS011;25635;51.146;17.162;2022-09-09T12:47:29;3.37;;;0.55;;
38805;SDS011;25635;51.146;17.162;2022-09-09T12:50:14;3.62;;;0.50;;
38805;SDS011;25635;51.146;17.162;2022-09-09T12:52:47;3.33;;;0.65;;
38805;SDS011;25635;51.146;17.162;2022-09-09T12:55:21;2.70;;;0.68;;
38805;SDS011;25635;51.146;17.162;2022-09-09T12:57:47;4.45;;;0.62;;
38805;SDS011;25635;51.146;17.162;2022-09-09T13:00:19;4.35;;;0.72;;
38805;SDS011;25635;51.146;17.162;2022-09-09T13:02:55;4.37;;;0.70;;
38805;SDS011;25635;51.146;17.162;2022-09-09T13:05:57;4.62;;;0.90;;
38805;SDS011;25635;51.146;17.162;2022-09-09T13:08:05;2.67;;;0.78;;
38805;SDS011;25635;51.146;17.162;2022-09-09T13:10:38;4.80;;;0.60;;
38805;SDS011;25635;51.146;17.162;2022-09-09T13:13:31;3.70;;;0.80;;
38805;SDS011;25635;51.146;17.162;2022-09-09T13:18:50;2.15;;;0.60;;
38805;SDS011;25635;51.146;17.162;2022-09-09T13:21:18;4.03;;;0.60;;
38805;SDS011;25635;51.146;17.162;2022-09-09T13:23:48;4.92;;;0.53;;
38805;SDS011;25635;51.146;17.162;2022-09-09T13:26:22;4.40;;;0.70;;
38805;SDS011;25635;51.146;17.162;2022-09-09T13:28:51;2.27;;;0.60;;
38805;SDS011;25635;51.146;17.162;2022-09-09T13:31:22;2.83;;;0.60;;
38805;SDS011;25635;51.146;17.162;2022-09-09T13:33:57;2.75;;;0.55;;
38805;SDS011;25635;51.146;17.162;2022-09-09T13:36:34;2.92;;;0.60;;
38805;SDS011;25635;51.146;17.162;2022-09-09T13:39:01;4.42;;;0.75;;
38805;SDS011;25635;51.146;17.162;2022-09-09T13:41:41;3.87;;;0.65;;
38805;SDS011;25635;51.146;17.162;2022-09-09T13:44:25;3.58;;;0.60;;
38805;SDS011;25635;51.146;17.162;2022-09-09T13:54:42;3.70;;;0.80;;
38805;SDS011;25635;51.146;17.162;2022-09-09T13:57:20;5.67;;;0.88;;
38805;SDS011;25635;51.146;17.162;2022-09-09T13:59:50;2.67;;;0.68;;
38805;SDS011;25635;51.146;17.162;2022-09-09T14:02:20;2.62;;;0.53;;
38805;SDS011;25635;51.146;17.162;2022-09-09T14:04:48;2.72;;;0.60;;
38805;SDS011;25635;51.146;17.162;2022-09-09T14:07:16;3.15;;;0.70;;
38805;SDS011;25635;51.146;17.162;2022-09-09T14:09:44;2.20;;;0.65;;
38805;SDS011;25635;51.146;17.162;2022-09-09T14:12:12;2.80;;;0.70;;
38805;SDS011;25635;51.146;17.162;2022-09-09T14:14:41;3.08;;;0.70;;
38805;SDS011;25635;51.146;17.162;2022-09-09T14:17:08;3.85;;;0.62;;
38805;SDS011;25635;51.146;17.162;2022-09-09T14:19:35;2.87;;;0.40;;
38805;SDS011;25635;51.146;17.162;2022-09-09T14:22:02;3.20;;;0.47;;
38805;SDS011;25635;51.146;17.162;2022-09-09T14:24:29;2.33;;;0.50;;
38805;SDS011;25635;51.146;17.162;2022-09-09T14:26:56;1.98;;;0.50;;
38805;SDS011;25635;51.146;17.162;2022-09-09T14:29:22;4.15;;;0.98;;
38805;SDS011;25635;51.146;17.162;2022-09-09T15:03:32;3.08;;;0.60;;
38805;SDS011;25635;51.146;17.162;2022-09-09T15:06:04;3.20;;;0.72;;
38805;SDS011;25635;51.146;17.162;2022-09-09T15:08:43;3.80;;;0.80;;
38805;SDS011;25635;51.146;17.162;2022-09-09T15:11:11;3.58;;;0.90;;
38805;SDS011;25635;51.146;17.162;2022-09-09T15:13:39;2.95;;;0.70;;
38805;SDS011;25635;51.146;17.162;2022-09-09T15:16:09;2.62;;;0.60;;
38805;SDS011;25635;51.146;17.162;2022-09-09T15:18:58;2.60;;;0.70;;
38805;SDS011;25635;51.146;17.162;2022-09-09T15:21:27;4.75;;;0.60;;
38805;SDS011;25635;51.146;17.162;2022-09-09T15:23:57;3.33;;;0.70;;
38805;SDS011;25635;51.146;17.162;2022-09-09T15:26:25;4.95;;;0.62;;
38805;SDS011;25635;51.146;17.162;2022-09-09T15:28:53;2.15;;;0.60;;
38805;SDS011;25635;51.146;17.162;2022-09-09T15:34:15;2.35;;;0.78;;
38805;SDS011;25635;51.146;17.162;2022-09-09T15:36:46;3.77;;;0.68;;
38805;SDS011;25635;51.146;17.162;2022-09-09T15:39:12;5.37;;;0.90;;
38805;SDS011;25635;51.146;17.162;2022-09-09T15:41:42;2.92;;;0.88;;
38805;SDS011;25635;51.146;17.162;2022-09-09T15:44:11;4.03;;;1.10;;
38805;SDS011;25635;51.146;17.162;2022-09-09T15:46:39;4.53;;;1.00;;
38805;SDS011;25635;51.146;17.162;2022-09-09T15:49:13;3.95;;;1.05;;
38805;SDS011;25635;51.146;17.162;2022-09-09T15:51:45;4.10;;;0.80;;
38805;SDS011;25635;51.146;17.162;2022-09-09T15:54:18;3.83;;;0.70;;
38805;SDS011;25635;51.146;17.162;2022-09-09T15:56:50;3.58;;;0.82;;
38805;SDS011;25635;51.146;17.162;2022-09-09T15:59:24;4.70;;;0.80;;
38805;SDS011;25635;51.146;17.162;2022-09-09T16:02:12;3.12;;;0.90;;
38805;SDS011;25635;51.146;17.162;2022-09-09T16:04:39;2.90;;;0.78;;
38805;SDS011;25635;51.146;17.162;2022-09-09T16:07:05;3.83;;;1.00;;
38805;SDS011;25635;51.146;17.162;2022-09-09T16:09:32;3.70;;;1.02;;
38805;SDS011;25635;51.146;17.162;2022-09-09T16:12:00;2.65;;;0.70;;
38805;SDS011;25635;51.146;17.162;2022-09-09T16:14:33;2.95;;;0.95;;
38805;SDS011;25635;51.146;17.162;2022-09-09T16:27:12;4.75;;;1.00;;
38805;SDS011;25635;51.146;17.162;2022-09-09T16:29:39;4.20;;;1.65;;
38805;SDS011;25635;51.146;17.162;2022-09-09T16:32:05;3.52;;;1.15;;
38805;SDS011;25635;51.146;17.162;2022-09-09T16:34:31;3.30;;;1.05;;
38805;SDS011;25635;51.146;17.162;2022-09-09T16:36:58;4.78;;;1.25;;
38805;SDS011;25635;51.146;17.162;2022-09-09T16:39:24;5.97;;;1.35;;
38805;SDS011;25635;51.146;17.162;2022-09-09T16:41:51;6.80;;;1.30;;
38805;SDS011;25635;51.146;17.162;2022-09-09T16:44:17;3.10;;;1.02;;
38805;SDS011;25635;51.146;17.162;2022-09-09T16:49:31;4.95;;;0.90;;
38805;SDS011;25635;51.146;17.162;2022-09-09T16:51:59;4.08;;;0.98;;
38805;SDS011;25635;51.146;17.162;2022-09-09T16:54:26;3.65;;;1.20;;
38805;SDS011;25635;51.146;17.162;2022-09-09T16:56:52;4.42;;;1.40;;
38805;SDS011;25635;51.146;17.162;2022-09-09T16:59:19;4.85;;;1.40;;
38805;SDS011;25635;51.146;17.162;2022-09-09T17:04:27;3.08;;;1.07;;
38805;SDS011;25635;51.146;17.162;2022-09-09T17:06:53;4.87;;;1.40;;
38805;SDS011;25635;51.146;17.162;2022-09-09T17:09:21;4.92;;;1.00;;
38805;SDS011;25635;51.146;17.162;2022-09-09T17:11:49;4.22;;;1.27;;
38805;SDS011;25635;51.146;17.162;2022-09-09T17:14:17;5.30;;;1.90;;
38805;SDS011;25635;51.146;17.162;2022-09-09T17:16:45;5.60;;;1.67;;
38805;SDS011;25635;51.146;17.162;2022-09-09T17:19:12;4.60;;;1.57;;
38805;SDS011;25635;51.146;17.162;2022-09-09T17:21:39;4.97;;;1.65;;
38805;SDS011;25635;51.146;17.162;2022-09-09T17:24:06;5.55;;;1.57;;
38805;SDS011;25635;51.146;17.162;2022-09-09T17:26:32;6.08;;;1.57;;
38805;SDS011;25635;51.146;17.162;2022-09-09T17:29:00;5.35;;;1.82;;
38805;SDS011;25635;51.146;17.162;2022-09-09T17:31:28;6.70;;;1.80;;
38805;SDS011;25635;51.146;17.162;2022-09-09T17:33:56;7.30;;;2.50;;
38805;SDS011;25635;51.146;17.162;2022-09-09T17:36:24;6.78;;;2.20;;
38805;SDS011;25635;51.146;17.162;2022-09-09T17:38:54;4.00;;;1.60;;
38805;SDS011;25635;51.146;17.162;2022-09-09T17:41:21;4.83;;;1.45;;
38805;SDS011;25635;51.146;17.162;2022-09-09T17:43:53;5.70;;;1.70;;
38805;SDS011;25635;51.146;17.162;2022-09-09T17:46:24;4.42;;;1.55;;
38805;SDS011;25635;51.146;17.162;2022-09-09T17:48:55;4.67;;;1.70;;
38805;SDS011;25635;51.146;17.162;2022-09-09T17:51:25;5.60;;;1.77;;
38805;SDS011;25635;51.146;17.162;2022-09-09T17:53:55;5.33;;;1.60;;
38805;SDS011;25635;51.146;17.162;2022-09-09T17:56:34;6.15;;;1.80;;
38805;SDS011;25635;51.146;17.162;2022-09-09T17:59:03;5.67;;;2.08;;
38805;SDS011;25635;51.146;17.162;2022-09-09T18:01:37;7.20;;;2.35;;
38805;SDS011;25635;51.146;17.162;2022-09-09T18:04:03;6.90;;;2.10;;
38805;SDS011;25635;51.146;17.162;2022-09-09T18:06:36;4.92;;;1.90;;
38805;SDS011;25635;51.146;17.162;2022-09-09T18:09:06;5.30;;;1.92;;
38805;SDS011;25635;51.146;17.162;2022-09-09T18:11:38;6.33;;;1.70;;
38805;SDS011;25635;51.146;17.162;2022-09-09T18:14:17;3.95;;;1.60;;
38805;SDS011;25635;51.146;17.162;2022-09-09T18:19:33;5.92;;;1.77;;
38805;SDS011;25635;51.146;17.162;2022-09-09T18:22:00;5.53;;;1.67;;
38805;SDS011;25635;51.146;17.162;2022-09-09T18:24:30;6.28;;;2.05;;
38805;SDS011;25635;51.146;17.162;2022-09-09T18:26:58;4.47;;;1.50;;
38805;SDS011;25635;51.146;17.162;2022-09-09T18:29:25;5.53;;;1.80;;
38805;SDS011;25635;51.146;17.162;2022-09-09T18:34:39;5.00;;;1.50;;
38805;SDS011;25635;51.146;17.162;2022-09-09T18:37:05;5.25;;;1.82;;
38805;SDS011;25635;51.146;17.162;2022-09-09T18:39:32;5.40;;;1.90;;
38805;SDS011;25635;51.146;17.162;2022-09-09T18:41:59;4.65;;;1.75;;
38805;SDS011;25635;51.146;17.162;2022-09-09T18:44:32;5.15;;;1.85;;
38805;SDS011;25635;51.146;17.162;2022-09-09T18:49:26;6.65;;;2.05;;
38805;SDS011;25635;51.146;17.162;2022-09-09T18:51:53;4.83;;;1.85;;
38805;SDS011;25635;51.146;17.162;2022-09-09T18:54:22;6.47;;;2.02;;
38805;SDS011;25635;51.146;17.162;2022-09-09T18:56:53;4.92;;;2.05;;
38805;SDS011;25635;51.146;17.162;2022-09-09T18:59:21;8.73;;;2.50;;
38805;SDS011;25635;51.146;17.162;2022-09-09T19:01:49;7.53;;;3.33;;
38805;SDS011;25635;51.146;17.162;2022-09-09T19:04:17;8.35;;;3.58;;
38805;SDS011;25635;51.146;17.162;2022-09-09T19:06:47;8.70;;;3.17;;
38805;SDS011;25635;51.146;17.162;2022-09-09T19:09:15;8.13;;;3.40;;
38805;SDS011;25635;51.146;17.162;2022-09-09T19:11:43;8.80;;;3.92;;
38805;SDS011;25635;51.146;17.162;2022-09-09T19:14:11;7.30;;;3.67;;
38805;SDS011;25635;51.146;17.162;2022-09-09T19:16:40;7.70;;;3.60;;
38805;SDS011;25635;51.146;17.162;2022-09-09T19:19:07;7.28;;;3.67;;
38805;SDS011;25635;51.146;17.162;2022-09-09T19:21:38;9.90;;;4.00;;
38805;SDS011;25635;51.146;17.162;2022-09-09T19:24:06;11.70;;;4.22;;
38805;SDS011;25635;51.146;17.162;2022-09-09T19:26:40;8.13;;;3.50;;
38805;SDS011;25635;51.146;17.162;2022-09-09T19:29:11;7.63;;;3.17;;
38805;SDS011;25635;51.146;17.162;2022-09-09T19:34:13;8.28;;;3.10;;